Time;durP1;ratioP1;P1;durP2;ratioP2;P2;SDS_P1;SDS_P2;PMS_P1;PMS_P2;Temp;Humidity;BMP_temperature;BMP_pressure;BME280_temperature;BME280_humidity;BME280_pressure;Samples;Min_cycle;Max_cycle;Signal;HPM_P1;HPM_P2
2022/03/07 00:02:17;;;;;;;8.02;2.63;;;2.40;51.60;;;;;;5065851;28;20041;-68
2022/03/07 00:04:44;;;;;;;4.85;2.10;;;2.30;51.70;;;;;;5065427;28;20062;-69
2022/03/07 00:07:11;;;;;;;3.78;1.85;;;2.30;51.80;;;;;;5063555;28;20048;-67
2022/03/07 00:09:38;;;;;;;4.97;2.20;;;2.30;51.80;;;;;;5067888;28;20086;-68
2022/03/07 00:12:11;;;;;;;5.68;2.60;;;2.30;51.70;;;;;;5069556;28;20051;-69
2022/03/07 00:14:40;;;;;;;5.35;2.20;;;2.40;51.70;;;;;;5067632;28;20136;-69
2022/03/07 00:17:07;;;;;;;5.70;2.55;;;2.40;51.70;;;;;;5073660;28;20486;-68
2022/03/07 00:19:44;;;;;;;5.15;2.83;;;2.40;51.80;;;;;;5067625;28;20044;-67
2022/03/07 00:22:12;;;;;;;5.45;3.08;;;2.40;51.60;;;;;;5063051;28;20053;-69
2022/03/07 00:24:39;;;;;;;4.50;2.60;;;2.30;51.50;;;;;;5063582;28;20048;-69
2022/03/07 00:27:07;;;;;;;7.10;3.17;;;2.30;51.00;;;;;;5063696;28;20048;-69
2022/03/07 00:29:37;;;;;;;4.80;2.65;;;2.30;50.80;;;;;;5063689;28;20033;-68
2022/03/07 00:32:10;;;;;;;;;;;2.40;50.60;;;;;;5064912;28;20072;-68
2022/03/07 00:34:37;;;;;;;5.70;2.35;;;2.40;50.50;;;;;;5062312;28;19934;-69
2022/03/07 00:37:05;;;;;;;6.65;3.63;;;2.40;50.20;;;;;;5065066;28;20126;-69
2022/03/07 00:39:35;;;;;;;7.22;3.25;;;2.30;50.30;;;;;;5074387;28;20942;-67
2022/03/07 00:42:03;;;;;;;7.22;3.42;;;2.30;50.30;;;;;;5065787;28;20044;-69
2022/03/07 00:44:31;;;;;;;5.43;3.00;;;2.40;50.30;;;;;;5069846;28;20127;-69
2022/03/07 00:46:58;;;;;;;6.13;2.95;;;2.40;50.20;;;;;;5056839;28;20051;-68
2022/03/07 00:49:27;;;;;;;6.47;3.28;;;2.40;50.20;;;;;;5063467;28;20076;-69
2022/03/07 00:51:54;;;;;;;7.13;3.47;;;2.40;50.30;;;;;;5067155;28;20517;-70
2022/03/07 00:54:22;;;;;;;6.88;3.22;;;2.30;50.50;;;;;;5066486;28;20406;-69
2022/03/07 00:56:49;;;;;;;9.13;3.80;;;2.30;50.60;;;;;;5068850;28;20394;-67
2022/03/07 00:59:17;;;;;;;6.45;3.38;;;2.30;50.30;;;;;;5064944;28;20045;-67
2022/03/07 01:01:49;;;;;;;7.05;3.65;;;2.30;50.20;;;;;;5064995;28;20066;-69
2022/03/07 01:04:17;;;;;;;6.85;3.55;;;2.40;50.10;;;;;;5075936;28;20079;-69
2022/03/07 01:06:45;;;;;;;7.97;3.85;;;2.30;50.30;;;;;;5059157;28;20095;-68
2022/03/07 01:09:13;;;;;;;10.77;4.00;;;2.30;50.30;;;;;;5063690;28;20120;-68
2022/03/07 01:11:44;;;;;;;6.78;3.50;;;2.30;50.40;;;;;;5065234;28;20041;-67
2022/03/07 01:14:14;;;;;;;8.82;4.18;;;2.30;50.50;;;;;;5064299;28;20159;-69
2022/03/07 01:16:42;;;;;;;8.82;3.80;;;2.30;50.60;;;;;;5058502;28;20155;-70
2022/03/07 01:19:09;;;;;;;9.18;3.53;;;2.30;50.70;;;;;;5048251;28;20049;-69
2022/03/07 01:21:39;;;;;;;10.30;4.18;;;2.30;50.80;;;;;;5072000;28;20055;-69
2022/03/07 01:24:08;;;;;;;6.80;3.50;;;2.30;50.50;;;;;;5052791;28;20256;-69
2022/03/07 01:26:36;;;;;;;8.10;4.20;;;2.30;50.50;;;;;;5047909;28;20070;-69
2022/03/07 01:29:03;;;;;;;8.13;4.30;;;2.30;50.60;;;;;;5050760;28;21434;-68
2022/03/07 01:31:30;;;;;;;6.35;3.45;;;2.30;50.40;;;;;;5047074;28;20059;-69
2022/03/07 01:33:57;;;;;;;7.00;3.10;;;2.30;50.40;;;;;;5063013;28;20160;-70
2022/03/07 01:36:27;;;;;;;9.40;4.10;;;2.30;50.50;;;;;;5061849;28;20045;-68
2022/03/07 01:38:54;;;;;;;10.27;3.80;;;2.30;50.30;;;;;;5048439;28;20098;-69
2022/03/07 01:41:25;;;;;;;10.20;5.22;;;2.30;50.20;;;;;;5055470;28;20044;-68
2022/03/07 01:43:52;;;;;;;;;;;2.30;50.10;;;;;;5051848;28;20041;-68
2022/03/07 01:46:19;;;;;;;6.40;3.88;;;2.30;50.00;;;;;;5042722;28;20373;-68
2022/03/07 01:48:50;;;;;;;6.15;3.47;;;2.30;50.20;;;;;;5073803;28;20051;-69
2022/03/07 01:51:19;;;;;;;9.20;4.22;;;2.30;50.00;;;;;;5073062;28;20076;-71
2022/03/07 01:53:47;;;;;;;7.10;3.70;;;2.30;50.20;;;;;;5058858;28;20531;-69
2022/03/07 01:56:16;;;;;;;8.35;4.75;;;2.30;50.10;;;;;;5058468;28;20533;-68
2022/03/07 01:58:45;;;;;;;9.70;4.15;;;2.30;50.20;;;;;;5058452;28;20044;-71
2022/03/07 02:01:13;;;;;;;7.38;3.53;;;2.30;49.90;;;;;;5057791;28;20048;-68
2022/03/07 02:03:41;;;;;;;9.27;4.60;;;2.30;49.80;;;;;;5064181;28;20503;-69
2022/03/07 02:06:09;;;;;;;9.10;4.10;;;2.30;50.00;;;;;;5061758;28;20052;-68
2022/03/07 02:08:42;;;;;;;8.82;3.33;;;2.30;49.90;;;;;;5070070;28;20622;-71
2022/03/07 02:11:16;;;;;;;7.25;3.92;;;2.30;49.80;;;;;;5074824;28;20136;-70
2022/03/07 02:13:47;;;;;;;;;;;2.30;50.00;;;;;;5070468;28;20044;-68
2022/03/07 02:16:17;;;;;;;6.40;3.63;;;2.30;50.10;;;;;;5057815;28;19920;-69
2022/03/07 02:18:44;;;;;;;8.35;4.43;;;2.30;50.20;;;;;;5058942;28;20064;-68
2022/03/07 02:21:33;;;;;;;6.15;3.70;;;2.30;50.10;;;;;;5062260;28;20059;-68
2022/03/07 02:24:16;;;;;;;8.85;4.55;;;2.30;50.10;;;;;;5051005;28;20497;-69
2022/03/07 02:26:59;;;;;;;6.60;3.35;;;2.20;50.10;;;;;;5069856;28;20040;-69
2022/03/07 02:29:27;;;;;;;9.10;5.47;;;2.30;50.10;;;;;;5057739;28;20485;-68
2022/03/07 02:32:01;;;;;;;8.98;4.80;;;2.30;50.00;;;;;;5057451;28;20056;-70
2022/03/07 02:34:35;;;;;;;7.18;4.38;;;2.30;50.00;;;;;;5063952;28;20084;-70
2022/03/07 02:37:02;;;;;;;8.90;4.70;;;2.20;49.60;;;;;;5071504;28;20068;-69
2022/03/07 02:39:41;;;;;;;7.32;3.75;;;2.20;49.20;;;;;;5054565;28;20068;-70
2022/03/07 02:42:09;;;;;;;10.13;4.18;;;2.20;48.90;;;;;;5057336;28;20068;-69
2022/03/07 02:44:39;;;;;;;9.10;4.38;;;2.20;49.00;;;;;;5066164;28;20059;-68
2022/03/07 02:47:12;;;;;;;;;;;2.20;48.90;;;;;;5062942;28;20052;-71
2022/03/07 02:49:39;;;;;;;6.00;2.90;;;2.20;48.90;;;;;;5040226;28;19925;-70
2022/03/07 02:52:09;;;;;;;9.05;4.50;;;2.20;48.80;;;;;;5045099;28;20045;-69
2022/03/07 02:54:38;;;;;;;8.60;4.13;;;2.20;49.00;;;;;;5056778;28;20473;-70
2022/03/07 02:57:07;;;;;;;9.05;3.97;;;2.20;48.90;;;;;;5049618;28;20056;-70
2022/03/07 02:59:35;;;;;;;8.10;4.60;;;2.20;48.70;;;;;;5049573;28;20040;-68
2022/03/07 03:02:03;;;;;;;8.48;4.70;;;2.10;48.90;;;;;;5043533;28;20149;-68
2022/03/07 03:04:30;;;;;;;8.82;4.38;;;2.10;49.00;;;;;;5056986;28;20036;-69
2022/03/07 03:06:59;;;;;;;8.55;4.68;;;2.20;49.00;;;;;;5067249;28;20117;-69
2022/03/07 03:09:27;;;;;;;8.90;4.97;;;2.10;49.10;;;;;;5062771;28;20039;-68
2022/03/07 03:11:54;;;;;;;6.55;3.88;;;2.10;49.40;;;;;;5058764;28;20044;-68
2022/03/07 03:14:23;;;;;;;14.25;5.55;;;2.20;49.20;;;;;;5057890;28;20055;-68
2022/03/07 03:16:50;;;;;;;7.25;4.88;;;2.10;49.30;;;;;;5061243;28;20048;-68
2022/03/07 03:19:21;;;;;;;8.25;4.65;;;2.10;49.40;;;;;;5058395;28;20134;-68
2022/03/07 03:21:48;;;;;;;8.18;5.22;;;2.00;49.20;;;;;;5062699;28;20115;-69
2022/03/07 03:24:16;;;;;;;9.38;5.28;;;2.00;49.20;;;;;;5054576;28;20075;-68
2022/03/07 03:26:44;;;;;;;7.53;4.07;;;2.00;49.40;;;;;;5057052;28;20045;-68
2022/03/07 03:29:17;;;;;;;8.55;4.55;;;1.90;49.50;;;;;;5054986;28;20049;-69
2022/03/07 03:31:47;;;;;;;8.68;4.47;;;1.90;49.40;;;;;;5067132;28;20047;-68
2022/03/07 03:34:14;;;;;;;9.07;4.75;;;1.90;49.40;;;;;;5066968;28;20186;-69
2022/03/07 03:36:41;;;;;;;9.10;4.88;;;1.90;49.50;;;;;;5068956;28;20041;-67
2022/03/07 03:39:11;;;;;;;9.30;4.43;;;1.80;49.50;;;;;;5061070;28;20065;-69
2022/03/07 03:41:38;;;;;;;8.85;4.07;;;1.80;49.60;;;;;;5067940;28;20451;-69
2022/03/07 03:44:06;;;;;;;7.97;4.30;;;1.80;49.40;;;;;;5069264;28;20045;-68
2022/03/07 03:46:33;;;;;;;8.20;4.13;;;1.80;49.50;;;;;;5045062;28;20045;-69
2022/03/07 03:49:02;;;;;;;7.60;3.95;;;1.70;49.30;;;;;;5058371;28;20079;-69
2022/03/07 03:51:31;;;;;;;7.00;3.50;;;1.70;49.10;;;;;;5058848;28;20036;-69
2022/03/07 03:53:58;;;;;;;8.50;3.85;;;1.70;48.90;;;;;;5058153;28;20116;-69
2022/03/07 03:56:25;;;;;;;4.40;2.75;;;1.70;48.80;;;;;;5055238;28;20508;-68
2022/03/07 03:58:52;;;;;;;4.63;2.60;;;1.70;48.70;;;;;;5061862;28;20041;-69
2022/03/07 04:01:20;;;;;;;5.53;2.83;;;1.80;48.70;;;;;;5057914;28;20465;-68
2022/03/07 04:03:48;;;;;;;6.80;3.55;;;1.80;48.50;;;;;;5047430;28;20043;-69
2022/03/07 04:06:17;;;;;;;5.57;3.35;;;1.80;48.50;;;;;;5046410;28;20053;-68
2022/03/07 04:08:50;;;;;;;5.57;3.22;;;1.80;48.40;;;;;;5049430;28;20053;-69
2022/03/07 04:11:25;;;;;;;6.13;3.20;;;1.80;48.50;;;;;;5052583;28;20045;-68
2022/03/07 04:13:54;;;;;;;7.22;2.42;;;1.80;48.40;;;;;;5051489;28;20080;-70
2022/03/07 04:16:21;;;;;;;6.30;3.15;;;1.80;48.50;;;;;;5050229;28;20405;-68
2022/03/07 04:19:01;;;;;;;6.82;2.63;;;1.80;48.40;;;;;;5052528;28;20044;-72
2022/03/07 04:21:30;;;;;;;6.15;3.28;;;1.80;48.50;;;;;;5045675;28;20052;-69
2022/03/07 04:23:57;;;;;;;4.78;2.38;;;1.80;49.00;;;;;;5042746;28;20071;-68
2022/03/07 04:26:25;;;;;;;6.35;2.85;;;1.80;49.20;;;;;;5044332;28;20095;-69
2022/03/07 04:28:53;;;;;;;9.27;2.80;;;1.80;49.30;;;;;;5052920;28;20056;-69
2022/03/07 04:31:20;;;;;;;4.60;2.88;;;1.80;49.00;;;;;;5046841;28;20067;-68
2022/03/07 04:33:48;;;;;;;4.40;2.22;;;1.90;49.20;;;;;;5062970;28;20090;-68
2022/03/07 04:36:18;;;;;;;8.32;3.55;;;1.90;49.00;;;;;;5047972;28;20077;-69
2022/03/07 04:38:50;;;;;;;4.20;2.40;;;1.90;49.10;;;;;;5046402;28;20080;-70
2022/03/07 04:41:19;;;;;;;4.85;2.47;;;1.90;49.10;;;;;;5050413;28;20041;-69
2022/03/07 04:43:47;;;;;;;6.38;2.63;;;1.90;49.30;;;;;;5050415;28;20049;-69
2022/03/07 04:46:15;;;;;;;5.15;2.45;;;1.90;49.40;;;;;;5036453;28;20516;-69
2022/03/07 04:48:42;;;;;;;5.05;2.85;;;1.90;49.50;;;;;;5049865;28;20578;-70
2022/03/07 04:51:12;;;;;;;4.90;3.10;;;2.00;49.60;;;;;;5052536;28;20382;-70
2022/03/07 04:53:40;;;;;;;5.72;3.03;;;2.00;49.50;;;;;;5045945;28;20072;-69
2022/03/07 04:56:19;;;;;;;4.28;2.30;;;2.00;49.60;;;;;;5056322;28;20756;-68
2022/03/07 04:58:49;;;;;;;3.53;1.85;;;1.90;49.70;;;;;;5063998;28;20068;-69
2022/03/07 05:01:16;;;;;;;5.43;2.37;;;1.90;50.00;;;;;;5047071;28;20494;-68
2022/03/07 05:03:44;;;;;;;3.53;2.13;;;2.00;49.70;;;;;;5049363;28;20534;-68
2022/03/07 05:06:11;;;;;;;5.10;2.25;;;1.90;49.80;;;;;;5047812;28;20052;-68
2022/03/07 05:08:42;;;;;;;5.38;2.40;;;1.90;49.90;;;;;;5048159;28;20060;-68
2022/03/07 05:11:10;;;;;;;3.60;2.05;;;2.00;49.80;;;;;;5052359;28;20090;-68
2022/03/07 05:13:38;;;;;;;6.28;2.47;;;2.00;50.00;;;;;;5054837;28;20064;-68
2022/03/07 05:16:06;;;;;;;4.85;2.55;;;2.00;50.10;;;;;;5061220;28;20049;-68
2022/03/07 05:18:34;;;;;;;4.60;2.08;;;2.00;50.40;;;;;;5053686;28;20048;-69
2022/03/07 05:21:01;;;;;;;3.45;1.95;;;2.00;50.20;;;;;;5060630;28;20120;-68
2022/03/07 05:23:29;;;;;;;4.22;2.40;;;1.90;50.10;;;;;;5050679;28;20049;-68
2022/03/07 05:25:56;;;;;;;4.72;2.30;;;2.00;50.00;;;;;;5053730;28;20055;-70
2022/03/07 05:28:30;;;;;;;7.80;3.22;;;2.00;49.90;;;;;;5047322;28;20044;-69
2022/03/07 05:30:58;;;;;;;5.53;2.35;;;2.00;50.10;;;;;;5048931;28;20049;-68
2022/03/07 05:33:25;;;;;;;5.30;2.45;;;2.00;50.30;;;;;;5050322;28;20072;-70
2022/03/07 05:35:53;;;;;;;4.25;2.47;;;2.00;50.30;;;;;;5048687;28;20048;-70
2022/03/07 05:38:20;;;;;;;5.03;2.03;;;2.00;50.40;;;;;;5042261;28;20061;-69
2022/03/07 05:40:49;;;;;;;8.50;2.88;;;2.00;50.50;;;;;;5054455;28;20051;-68
2022/03/07 05:43:16;;;;;;;6.82;2.30;;;2.00;50.70;;;;;;5055867;28;20072;-69
2022/03/07 05:45:45;;;;;;;3.65;2.35;;;2.00;51.00;;;;;;5047718;28;20045;-68
2022/03/07 05:48:12;;;;;;;4.43;2.28;;;1.90;51.10;;;;;;5050003;28;20041;-68
2022/03/07 05:50:39;;;;;;;4.20;2.45;;;2.00;51.20;;;;;;5049694;28;20136;-68
2022/03/07 05:53:06;;;;;;;4.53;2.05;;;2.00;51.20;;;;;;5051523;28;20053;-68
2022/03/07 05:55:34;;;;;;;2.78;1.70;;;2.00;51.30;;;;;;5056195;28;20510;-68
2022/03/07 05:58:02;;;;;;;4.85;2.50;;;2.00;51.30;;;;;;5063131;28;20047;-69
2022/03/07 06:00:30;;;;;;;2.90;1.73;;;2.00;51.60;;;;;;5050291;28;20120;-68
2022/03/07 06:02:59;;;;;;;4.03;2.17;;;2.00;51.70;;;;;;5046222;28;20065;-68
2022/03/07 06:05:31;;;;;;;4.43;2.05;;;2.00;51.60;;;;;;5047608;28;20049;-69
2022/03/07 06:07:58;;;;;;;8.65;2.60;;;2.10;51.70;;;;;;5053948;28;20083;-68
2022/03/07 06:10:25;;;;;;;5.43;2.47;;;2.10;51.70;;;;;;5053217;28;20045;-68
2022/03/07 06:12:53;;;;;;;4.88;2.10;;;2.10;51.40;;;;;;5045321;28;20449;-68
2022/03/07 06:15:20;;;;;;;4.43;2.15;;;2.10;51.50;;;;;;5057639;28;20071;-69
2022/03/07 06:17:54;;;;;;;4.20;2.67;;;2.10;51.70;;;;;;5052830;28;20136;-71
2022/03/07 06:20:36;;;;;;;4.68;2.42;;;2.10;51.80;;;;;;5055537;28;20059;-69
2022/03/07 06:23:13;;;;;;;5.63;2.20;;;2.10;51.80;;;;;;5044312;28;20055;-69
2022/03/07 06:25:41;;;;;;;3.63;2.22;;;2.10;51.80;;;;;;5050072;28;20125;-69
2022/03/07 06:28:09;;;;;;;4.20;2.15;;;2.10;51.90;;;;;;5051011;28;20110;-68
2022/03/07 06:30:36;;;;;;;4.32;2.40;;;2.10;51.80;;;;;;5046241;28;20455;-69
2022/03/07 06:33:04;;;;;;;6.50;2.55;;;2.10;51.70;;;;;;5047065;28;20052;-70
2022/03/07 06:35:39;;;;;;;4.22;2.05;;;2.10;51.90;;;;;;5043915;28;20526;-68
2022/03/07 06:38:06;;;;;;;3.88;2.50;;;2.10;52.20;;;;;;5045339;28;20121;-69
2022/03/07 06:40:37;;;;;;;4.63;2.30;;;2.10;52.50;;;;;;5049090;28;20041;-69
2022/03/07 06:43:05;;;;;;;3.85;2.00;;;2.20;52.40;;;;;;5049508;28;20072;-68
2022/03/07 06:45:32;;;;;;;4.07;2.28;;;2.20;52.50;;;;;;5041663;28;20037;-69
2022/03/07 06:48:02;;;;;;;3.55;1.85;;;2.20;52.40;;;;;;5045159;28;20071;-70
2022/03/07 06:50:37;;;;;;;5.23;3.40;;;2.20;52.60;;;;;;5048049;28;20052;-69
2022/03/07 06:53:12;;;;;;;7.10;3.47;;;2.30;52.70;;;;;;5048891;28;20479;-68
2022/03/07 06:55:39;;;;;;;7.00;3.38;;;2.20;52.70;;;;;;5052172;28;20059;-68
2022/03/07 06:58:06;;;;;;;8.18;4.30;;;2.30;52.70;;;;;;5052122;28;20052;-67
2022/03/07 07:00:34;;;;;;;10.02;3.58;;;2.30;52.60;;;;;;5044147;28;20044;-67
2022/03/07 07:03:03;;;;;;;8.02;3.85;;;2.30;52.70;;;;;;5041085;28;20908;-69
2022/03/07 07:05:33;;;;;;;7.28;3.40;;;2.30;52.80;;;;;;5047084;28;21174;-68
2022/03/07 07:08:00;;;;;;;6.53;2.30;;;2.40;53.00;;;;;;5055303;28;20056;-68
2022/03/07 07:10:29;;;;;;;6.38;2.63;;;2.40;53.00;;;;;;5051868;28;20052;-68
2022/03/07 07:12:56;;;;;;;5.45;2.47;;;2.30;53.00;;;;;;5040948;28;20052;-67
2022/03/07 07:15:24;;;;;;;8.35;3.63;;;2.40;52.90;;;;;;5045171;28;20396;-70
2022/03/07 07:17:52;;;;;;;4.32;2.78;;;2.40;53.00;;;;;;5047958;28;20037;-68
2022/03/07 07:20:19;;;;;;;4.82;2.47;;;2.40;53.20;;;;;;5047351;28;20106;-68
2022/03/07 07:22:54;;;;;;;6.22;2.83;;;2.50;53.30;;;;;;5046622;28;20500;-69
2022/03/07 07:25:26;;;;;;;5.10;2.72;;;2.50;53.50;;;;;;5050791;28;20081;-69
2022/03/07 07:27:56;;;;;;;6.10;2.53;;;2.50;53.60;;;;;;5057698;28;20045;-69
2022/03/07 07:30:26;;;;;;;5.43;2.65;;;2.60;53.70;;;;;;5038626;28;20550;-68
2022/03/07 07:32:54;;;;;;;5.50;2.20;;;2.60;53.60;;;;;;5051551;28;20063;-68
2022/03/07 07:35:21;;;;;;;5.80;2.40;;;2.60;53.90;;;;;;5047506;28;20049;-69
2022/03/07 07:37:49;;;;;;;5.80;2.72;;;2.70;53.80;;;;;;5040631;28;20139;-68
2022/03/07 07:40:16;;;;;;;4.43;2.15;;;2.70;53.90;;;;;;5031630;28;20111;-69
2022/03/07 07:42:43;;;;;;;5.38;2.65;;;2.70;53.90;;;;;;5038515;28;20118;-68
2022/03/07 07:45:12;;;;;;;6.43;2.67;;;2.70;53.70;;;;;;5046036;28;20045;-68
2022/03/07 07:47:39;;;;;;;5.63;2.50;;;2.80;53.90;;;;;;5046687;28;20123;-68
2022/03/07 07:50:07;;;;;;;4.55;2.13;;;2.80;53.90;;;;;;5047792;28;20119;-70
2022/03/07 07:52:34;;;;;;;6.07;2.50;;;2.80;53.80;;;;;;5048284;28;20029;-70
2022/03/07 07:55:04;;;;;;;5.20;2.42;;;2.90;53.70;;;;;;5049758;28;20047;-68
2022/03/07 07:57:31;;;;;;;4.53;2.25;;;2.90;53.80;;;;;;5044012;28;20048;-69
2022/03/07 07:59:59;;;;;;;4.95;2.63;;;2.90;53.80;;;;;;5048266;28;20049;-68
2022/03/07 08:02:26;;;;;;;4.20;2.35;;;2.90;53.80;;;;;;5049808;28;20044;-68
2022/03/07 08:04:53;;;;;;;8.60;2.70;;;3.00;53.60;;;;;;5044542;28;20032;-70
2022/03/07 08:07:20;;;;;;;4.75;2.65;;;3.00;53.60;;;;;;5047353;28;20051;-69
2022/03/07 08:09:47;;;;;;;3.90;2.00;;;3.00;53.60;;;;;;5044350;28;20147;-68
2022/03/07 08:12:17;;;;;;;5.50;2.65;;;3.10;53.60;;;;;;5050995;28;20049;-70
2022/03/07 08:14:44;;;;;;;5.15;2.28;;;3.10;53.60;;;;;;5042744;28;20051;-70
2022/03/07 08:17:12;;;;;;;8.48;2.78;;;3.10;53.70;;;;;;5052486;28;20141;-67
2022/03/07 08:19:39;;;;;;;4.60;2.30;;;3.20;53.50;;;;;;5047486;28;20045;-70
2022/03/07 08:22:06;;;;;;;5.22;2.75;;;3.20;53.10;;;;;;5043309;28;20101;-69
2022/03/07 08:24:33;;;;;;;5.18;2.22;;;3.20;53.10;;;;;;5046744;28;20049;-68
2022/03/07 08:27:00;;;;;;;6.45;2.88;;;3.20;53.20;;;;;;5051798;28;20621;-69
2022/03/07 08:29:28;;;;;;;5.40;2.25;;;3.30;53.50;;;;;;5047931;28;20528;-69
2022/03/07 08:31:55;;;;;;;4.82;2.33;;;3.20;53.40;;;;;;5048519;28;20044;-69
2022/03/07 08:34:22;;;;;;;7.38;2.75;;;3.30;53.30;;;;;;5046686;28;20048;-69
2022/03/07 08:36:49;;;;;;;5.93;2.38;;;3.40;52.80;;;;;;5044891;28;20044;-69
2022/03/07 08:39:16;;;;;;;5.18;2.25;;;3.40;52.60;;;;;;5046847;28;20079;-70
2022/03/07 08:41:43;;;;;;;5.15;1.75;;;3.40;52.80;;;;;;5048756;28;20059;-70
2022/03/07 08:44:10;;;;;;;3.47;1.77;;;3.50;52.60;;;;;;5049092;28;20041;-70
2022/03/07 08:46:39;;;;;;;4.75;2.38;;;3.50;52.60;;;;;;5046479;28;20064;-68
2022/03/07 08:49:06;;;;;;;4.78;2.45;;;3.60;52.50;;;;;;5042285;28;20045;-69
2022/03/07 08:51:33;;;;;;;5.22;2.47;;;3.60;52.50;;;;;;5046508;28;20044;-70
2022/03/07 08:54:00;;;;;;;5.97;3.05;;;3.70;52.30;;;;;;5053988;28;20110;-69
2022/03/07 08:56:27;;;;;;;7.80;3.17;;;3.70;52.30;;;;;;5052681;28;20110;-69
2022/03/07 08:58:54;;;;;;;4.10;2.25;;;3.80;52.00;;;;;;5041168;28;20049;-68
2022/03/07 09:01:21;;;;;;;6.30;3.00;;;3.80;52.00;;;;;;5049655;28;20041;-70
2022/03/07 09:03:49;;;;;;;5.18;2.63;;;3.80;52.10;;;;;;5045924;28;20076;-70
2022/03/07 09:06:16;;;;;;;4.70;2.22;;;3.90;52.00;;;;;;5045719;28;20152;-71
2022/03/07 09:08:44;;;;;;;4.45;2.42;;;3.90;51.50;;;;;;5046991;28;20045;-71
2022/03/07 09:11:11;;;;;;;5.20;2.50;;;3.90;50.80;;;;;;5050190;28;20045;-70
2022/03/07 09:13:37;;;;;;;3.88;2.10;;;3.90;50.40;;;;;;5043311;28;20051;-70
2022/03/07 09:16:05;;;;;;;4.82;2.38;;;4.00;50.40;;;;;;5046796;28;20064;-71
2022/03/07 09:18:32;;;;;;;3.55;1.77;;;4.00;50.50;;;;;;5051239;28;20044;-71
2022/03/07 09:21:01;;;;;;;3.85;1.88;;;4.00;50.30;;;;;;5050191;28;20088;-72
2022/03/07 09:23:33;;;;;;;4.35;2.05;;;4.10;50.00;;;;;;5045067;28;20044;-70
2022/03/07 09:26:00;;;;;;;3.67;2.08;;;4.10;49.70;;;;;;5048470;28;20052;-69
2022/03/07 09:28:27;;;;;;;3.45;1.98;;;4.20;49.80;;;;;;5052109;28;20050;-71
2022/03/07 09:30:53;;;;;;;2.88;1.52;;;4.20;49.60;;;;;;5043764;28;20045;-70
2022/03/07 09:33:20;;;;;;;4.15;1.98;;;4.20;49.80;;;;;;5046863;28;20810;-73
2022/03/07 09:35:47;;;;;;;4.22;1.75;;;4.30;49.70;;;;;;5053673;28;20052;-70
2022/03/07 09:38:16;;;;;;;3.35;2.00;;;4.40;49.50;;;;;;5048557;28;20637;-71
2022/03/07 09:40:43;;;;;;;4.97;1.90;;;4.40;49.30;;;;;;5048999;28;20045;-71
2022/03/07 09:43:10;;;;;;;3.08;1.90;;;4.40;49.40;;;;;;5045309;28;20063;-70
2022/03/07 09:45:37;;;;;;;4.35;1.95;;;4.50;49.50;;;;;;5047615;28;20043;-69
2022/03/07 09:48:05;;;;;;;4.63;2.30;;;4.50;49.60;;;;;;5045913;28;20063;-71
2022/03/07 09:50:32;;;;;;;5.53;2.15;;;4.60;49.60;;;;;;5051115;28;20123;-70
2022/03/07 09:52:59;;;;;;;3.88;2.10;;;4.60;49.70;;;;;;5050627;28;20496;-71
2022/03/07 09:55:28;;;;;;;4.30;1.92;;;4.60;49.40;;;;;;5049611;28;20056;-70
2022/03/07 09:57:58;;;;;;;2.83;1.52;;;4.70;49.30;;;;;;5053076;28;20408;-70
2022/03/07 10:00:25;;;;;;;6.90;2.13;;;4.70;48.90;;;;;;5053772;28;20623;-70
2022/03/07 10:02:57;;;;;;;4.07;2.20;;;4.70;48.60;;;;;;5049027;28;20033;-71
2022/03/07 10:05:27;;;;;;;3.70;2.00;;;4.70;48.50;;;;;;5048853;28;20036;-70
2022/03/07 10:07:54;;;;;;;6.00;1.77;;;4.60;48.40;;;;;;5049058;28;20056;-72
2022/03/07 10:10:22;;;;;;;4.85;2.25;;;4.70;48.30;;;;;;5046682;28;20053;-71
2022/03/07 10:12:51;;;;;;;4.47;2.30;;;4.60;48.20;;;;;;5048383;28;20119;-71
2022/03/07 10:15:21;;;;;;;4.28;2.20;;;4.60;48.30;;;;;;5045182;28;20053;-70
2022/03/07 10:17:50;;;;;;;5.15;2.17;;;4.50;48.10;;;;;;5051325;28;20040;-71
2022/03/07 10:20:19;;;;;;;4.13;2.47;;;4.40;48.50;;;;;;5052679;28;20067;-71
2022/03/07 10:22:48;;;;;;;6.43;2.55;;;4.40;48.80;;;;;;5029191;28;20073;-70
2022/03/07 10:25:16;;;;;;;4.82;2.42;;;4.40;48.90;;;;;;5048079;28;20044;-71
2022/03/07 10:27:45;;;;;;;4.05;2.35;;;4.40;48.90;;;;;;5045417;28;20111;-70
2022/03/07 10:30:15;;;;;;;3.67;2.33;;;4.30;49.00;;;;;;5048354;28;20041;-70
2022/03/07 10:32:44;;;;;;;4.57;2.75;;;4.30;49.10;;;;;;5047073;28;20124;-70
2022/03/07 10:35:22;;;;;;;4.28;2.35;;;4.40;49.20;;;;;;5053469;28;20050;-70
2022/03/07 10:37:49;;;;;;;5.10;2.63;;;4.40;49.50;;;;;;5053616;28;20048;-71
2022/03/07 10:40:19;;;;;;;5.10;2.55;;;4.50;49.60;;;;;;5045369;28;20524;-70
2022/03/07 10:42:47;;;;;;;3.30;2.40;;;4.60;49.60;;;;;;5038135;28;20120;-71
2022/03/07 10:45:16;;;;;;;5.82;2.90;;;4.60;49.70;;;;;;5047873;28;20135;-70
2022/03/07 10:47:44;;;;;;;3.97;2.00;;;4.70;49.90;;;;;;5046223;28;20045;-71
2022/03/07 10:50:11;;;;;;;4.95;2.75;;;4.80;49.80;;;;;;5037291;28;20606;-70
2022/03/07 10:52:39;;;;;;;4.75;2.80;;;4.90;49.80;;;;;;5049660;28;20111;-71
2022/03/07 10:55:08;;;;;;;4.38;2.25;;;5.00;49.70;;;;;;5046306;28;20051;-70
2022/03/07 10:57:37;;;;;;;5.75;2.45;;;5.00;49.90;;;;;;5045338;28;20048;-70
2022/03/07 11:00:06;;;;;;;5.57;2.58;;;5.10;50.00;;;;;;5046351;28;20049;-72
2022/03/07 11:02:41;;;;;;;6.85;2.47;;;5.20;49.90;;;;;;5052181;28;20170;-72
2022/03/07 11:05:09;;;;;;;5.10;2.65;;;5.20;49.40;;;;;;5052665;28;20078;-72
2022/03/07 11:07:39;;;;;;;5.65;2.22;;;5.30;49.50;;;;;;5046223;28;20060;-71
2022/03/07 11:10:08;;;;;;;6.10;2.58;;;5.30;49.40;;;;;;5038993;28;20119;-71
2022/03/07 11:12:35;;;;;;;5.85;2.70;;;5.30;49.40;;;;;;5041006;28;20045;-71
2022/03/07 11:15:08;;;;;;;5.50;2.78;;;5.30;49.10;;;;;;5042189;28;20036;-71
2022/03/07 11:17:40;;;;;;;4.47;2.50;;;5.20;49.20;;;;;;5046791;28;20045;-71
2022/03/07 11:20:09;;;;;;;4.80;2.65;;;5.30;49.30;;;;;;5041955;28;20075;-72
2022/03/07 11:22:36;;;;;;;5.43;2.38;;;5.20;49.00;;;;;;5047456;28;20123;-72
2022/03/07 11:25:05;;;;;;;5.40;2.53;;;5.30;49.10;;;;;;5042807;28;20041;-71
2022/03/07 11:27:33;;;;;;;5.82;3.10;;;5.30;49.20;;;;;;5040406;28;20152;-71
2022/03/07 11:30:00;;;;;;;4.10;1.90;;;5.40;49.00;;;;;;5042755;28;20048;-72
2022/03/07 11:32:41;;;;;;;6.38;2.50;;;5.50;48.60;;;;;;5051735;28;20122;-72
2022/03/07 11:35:09;;;;;;;4.13;1.73;;;5.60;48.90;;;;;;5043950;28;20051;-71
2022/03/07 11:37:36;;;;;;;4.38;2.15;;;5.70;48.80;;;;;;5045932;28;20476;-72
2022/03/07 11:40:16;;;;;;;4.07;2.50;;;5.70;48.80;;;;;;5042242;28;20083;-71
2022/03/07 11:42:43;;;;;;;4.23;2.07;;;5.80;48.50;;;;;;5043297;28;20054;-73
2022/03/07 11:45:16;;;;;;;4.65;2.38;;;5.90;48.50;;;;;;5050758;28;20037;-70
2022/03/07 11:47:45;;;;;;;5.40;2.40;;;5.90;48.60;;;;;;5039281;28;20045;-69
2022/03/07 11:50:15;;;;;;;5.55;2.42;;;6.00;48.30;;;;;;5051523;28;20131;-72
2022/03/07 11:52:42;;;;;;;4.07;2.42;;;6.00;48.10;;;;;;5045194;28;20045;-71
2022/03/07 11:55:13;;;;;;;5.18;2.53;;;6.00;48.10;;;;;;5049044;28;20067;-71
2022/03/07 11:57:42;;;;;;;4.40;2.30;;;6.00;47.60;;;;;;5048323;28;20107;-72
2022/03/07 12:00:17;;;;;;;4.35;2.25;;;6.00;47.90;;;;;;5047646;28;21800;-71
2022/03/07 12:02:46;;;;;;;5.78;2.42;;;6.00;47.70;;;;;;5056217;28;20041;-72
2022/03/07 12:05:22;;;;;;;4.20;1.95;;;6.10;47.30;;;;;;5064875;28;20048;-72
2022/03/07 12:07:49;;;;;;;3.88;1.95;;;6.10;47.40;;;;;;5060662;28;20028;-70
2022/03/07 12:10:16;;;;;;;5.32;2.28;;;6.10;47.00;;;;;;5059672;28;20037;-71
2022/03/07 12:12:43;;;;;;;4.68;2.03;;;6.10;47.10;;;;;;5057361;28;20044;-72
2022/03/07 12:15:11;;;;;;;4.35;1.95;;;6.10;47.50;;;;;;5051830;28;20053;-72
2022/03/07 12:17:38;;;;;;;2.92;1.70;;;6.20;46.80;;;;;;5052450;28;20049;-71
2022/03/07 12:20:08;;;;;;;5.22;1.77;;;6.10;46.90;;;;;;5057587;28;20056;-71
2022/03/07 12:22:35;;;;;;;5.43;1.90;;;6.10;47.10;;;;;;5057691;28;20032;-71
2022/03/07 12:25:05;;;;;;;2.95;1.65;;;6.10;46.50;;;;;;5056581;28;20413;-70
2022/03/07 12:27:33;;;;;;;4.60;1.60;;;6.10;46.50;;;;;;5049793;28;20052;-71
2022/03/07 12:30:00;;;;;;;3.63;1.50;;;6.10;46.50;;;;;;5057567;28;20036;-71
2022/03/07 12:32:28;;;;;;;3.30;1.88;;;6.10;46.50;;;;;;5055382;28;20054;-70
2022/03/07 12:34:55;;;;;;;2.20;1.50;;;6.10;45.80;;;;;;5052684;28;20048;-71
2022/03/07 12:37:28;;;;;;;4.22;1.70;;;6.10;45.50;;;;;;5055956;28;20052;-70
2022/03/07 12:39:57;;;;;;;4.07;2.10;;;6.00;45.40;;;;;;5059216;28;20076;-70
2022/03/07 12:42:26;;;;;;;6.82;1.83;;;5.90;45.40;;;;;;5059130;28;20219;-71
2022/03/07 12:44:53;;;;;;;3.63;1.58;;;5.90;45.70;;;;;;5062361;28;20158;-71
2022/03/07 12:47:26;;;;;;;2.80;1.63;;;6.00;45.80;;;;;;5051598;28;20071;-71
2022/03/07 12:49:53;;;;;;;3.13;1.85;;;5.90;45.50;;;;;;5055942;28;20086;-71
2022/03/07 12:52:27;;;;;;;3.42;1.63;;;6.00;46.00;;;;;;5060758;28;20041;-70
2022/03/07 12:54:55;;;;;;;2.42;1.30;;;6.00;45.10;;;;;;5055934;28;20040;-72
2022/03/07 12:57:23;;;;;;;3.17;1.67;;;6.00;45.60;;;;;;5062448;28;20044;-71
2022/03/07 12:59:56;;;;;;;2.80;1.40;;;6.00;45.20;;;;;;5052026;28;20048;-71
2022/03/07 13:02:24;;;;;;;3.78;1.73;;;6.00;45.30;;;;;;5052972;28;20139;-71
2022/03/07 13:04:55;;;;;;;3.17;1.70;;;6.00;44.90;;;;;;5052652;28;20036;-70
2022/03/07 13:07:25;;;;;;;2.83;1.52;;;6.00;44.30;;;;;;5057342;28;20098;-72